Time;durP1;ratioP1;P1;durP2;ratioP2;P2;SDS_P1;SDS_P2;PMS_P1;PMS_P2;Temp;Humidity;BMP_temperature;BMP_pressure;BME280_temperature;BME280_humidity;BME280_pressure;Samples;Min_cycle;Max_cycle;Signal;HPM_P1;HPM_P2
2021/09/22 00:01:26;;;;;;;9.20;4.33;;;;;;;10.37;68.92;101252.27;1740804;82;21067;-56
2021/09/22 00:03:54;;;;;;;12.15;4.60;;;;;;;10.28;69.11;101252.05;1733304;81;21029;-56
2021/09/22 00:09:09;;;;;;;9.95;4.70;;;;;;;10.11;69.85;101256.02;1745049;81;21570;-57
2021/09/22 00:11:37;;;;;;;6.83;4.80;;;;;;;10.10;70.14;101252.92;1750146;81;21062;-57
2021/09/22 00:14:29;;;;;;;7.60;4.03;;;;;;;10.04;70.30;101247.25;1737128;81;21074;-56
2021/09/22 00:16:58;;;;;;;6.28;4.20;;;;;;;10.03;70.50;101248.17;1750305;81;21065;-56
2021/09/22 00:19:31;;;;;;;8.73;5.03;;;;;;;10.00;70.67;101248.73;1736361;81;21128;-57
2021/09/22 00:22:02;;;;;;;7.80;4.33;;;;;;;10.01;70.90;101248.67;1739099;81;21495;-57
2021/09/22 00:27:18;;;;;;;7.22;4.03;;;;;;;10.07;70.86;101240.09;1737549;81;21424;-56
2021/09/22 00:29:57;;;;;;;8.60;3.70;;;;;;;10.10;70.87;101234.64;1742046;81;20987;-56
2021/09/22 00:34:53;;;;;;;9.80;4.55;;;;;;;10.21;70.92;101235.23;1742897;81;21527;-57
2021/09/22 00:37:29;;;;;;;7.28;4.03;;;;;;;10.29;70.87;101236.38;1743513;81;21587;-56
2021/09/22 00:40:22;;;;;;;8.68;4.33;;;;;;;10.36;70.77;101229.06;1743819;81;21040;-56
2021/09/22 00:42:49;;;;;;;6.75;3.92;;;;;;;10.43;70.59;101234.70;1739497;81;21111;-57
2021/09/22 00:48:11;;;;;;;6.30;4.08;;;;;;;10.51;70.09;101230.04;1737876;81;21946;-54
2021/09/22 00:50:42;;;;;;;11.05;3.98;;;;;;;10.54;69.89;101230.39;1754019;81;21454;-53
2021/09/22 01:00:56;;;;;;;6.65;3.65;;;;;;;10.54;69.84;101223.70;1789716;79;21106;-57
2021/09/22 01:03:48;;;;;;;5.87;3.47;;;;;;;10.59;69.84;101219.97;1779144;80;21422;-57
2021/09/22 01:17:02;;;;;;;4.80;3.37;;;;;;;10.69;69.27;101211.66;1786485;79;21060;-56
2021/09/22 01:30:49;;;;;;;7.28;3.37;;;;;;;10.51;69.86;101202.33;1794306;79;20987;-56
2021/09/22 01:35:59;;;;;;;5.42;3.17;;;;;;;10.46;70.12;101203.34;1797182;79;21118;-53
2021/09/22 01:38:28;;;;;;;4.35;3.15;;;;;;;10.40;70.34;101197.23;1790224;79;21021;-55
2021/09/22 01:44:06;;;;;;;6.67;2.98;;;;;;;10.37;70.65;101194.64;1714740;82;21024;-53
2021/09/22 01:47:37;;;;;;;5.50;2.87;;;;;;;10.41;70.59;101193.66;1740994;80;21015;-52
2021/09/22 01:50:13;;;;;;;5.30;2.80;;;;;;;10.43;70.57;101186.45;1792501;79;20976;-53
2021/09/22 01:52:43;;;;;;;5.15;2.83;;;;;;;10.47;70.51;101182.76;1759416;79;21071;-53
2021/09/22 01:55:14;;;;;;;5.42;2.77;;;;;;;10.48;70.55;101181.84;1732803;82;21500;-54
2021/09/22 02:00:40;;;;;;;3.85;2.70;;;;;;;10.49;70.28;101186.27;1662358;85;21151;-54
2021/09/22 02:09:08;;;;;;;4.53;3.12;;;;;;;10.22;71.08;101181.20;1705409;83;21107;-53
2021/09/22 02:11:43;;;;;;;5.72;3.05;;;;;;;10.12;71.43;101183.23;1701109;79;21066;-56
2021/09/22 02:14:11;;;;;;;4.80;2.40;;;;;;;10.09;71.97;101177.96;1805767;78;21085;-56
2021/09/22 02:17:18;;;;;;;5.22;3.12;;;;;;;10.11;72.02;101182.82;1729173;82;21485;-56
2021/09/22 02:19:52;;;;;;;4.67;2.70;;;;;;;10.03;72.07;101181.20;1732033;82;21012;-56
2021/09/22 02:36:41;;;;;;;5.87;2.98;;;;;;;10.15;72.71;101192.53;1744335;81;21122;-56
2021/09/22 02:39:20;;;;;;;5.92;2.83;;;;;;;10.16;72.52;101198.31;1749537;79;21099;-56
2021/09/22 02:41:49;;;;;;;4.50;3.22;;;;;;;10.08;72.33;101189.60;1744086;81;21521;-56
2021/09/22 02:44:23;;;;;;;5.00;2.77;;;;;;;9.97;72.38;101190.73;1759844;80;21071;-55
2021/09/22 02:46:51;;;;;;;3.52;2.80;;;;;;;9.81;72.54;101193.37;1744541;80;21402;-53
2021/09/22 02:49:49;;;;;;;5.87;2.58;;;;;;;9.66;72.89;101183.92;1743953;82;21777;-56
2021/09/22 02:52:18;;;;;;;4.83;2.67;;;;;;;9.54;73.44;101185.09;1725828;81;21014;-56
2021/09/22 02:57:30;;;;;;;4.12;2.70;;;;;;;9.48;74.00;101182.58;1700234;82;21491;-56
2021/09/22 02:59:58;;;;;;;4.62;2.62;;;;;;;9.48;74.07;101194.62;1739822;81;21070;-56
2021/09/22 03:05:30;;;;;;;4.28;2.58;;;;;;;9.44;74.22;101198.71;1710241;81;21012;-56
2021/09/22 03:07:57;;;;;;;4.85;3.27;;;;;;;9.39;74.39;101187.20;1774330;79;21463;-56
2021/09/22 03:10:30;;;;;;;5.78;3.35;;;;;;;9.37;74.46;101198.88;1790634;79;21028;-55
2021/09/22 03:12:59;;;;;;;6.87;2.98;;;;;;;9.30;74.62;101203.05;1786629;79;21541;-56
2021/09/22 03:15:31;;;;;;;5.90;3.47;;;;;;;9.21;74.72;101199.69;1789838;79;21496;-55
2021/09/22 03:18:15;;;;;;;6.17;3.25;;;;;;;9.09;75.16;101203.52;1786199;79;21088;-53
2021/09/22 03:23:27;;;;;;;5.78;3.35;;;;;;;9.02;75.83;101196.94;1775239;79;21047;-56
2021/09/22 03:25:58;;;;;;;4.83;3.37;;;;;;;8.99;75.98;101194.33;1775634;79;20989;-55
2021/09/22 03:36:10;;;;;;;5.65;3.83;;;;;;;8.62;76.67;101192.44;1773519;79;21080;-57
2021/09/22 03:38:56;;;;;;;5.85;3.72;;;;;;;8.50;77.10;101190.84;1796472;79;21455;-57
2021/09/22 03:44:05;;;;;;;8.65;3.83;;;;;;;8.28;78.07;101187.22;1774485;79;20917;-55
2021/09/22 03:49:36;;;;;;;7.78;3.98;;;;;;;8.25;78.91;101188.61;1771704;79;21067;-56
2021/09/22 03:54:50;;;;;;;6.03;3.83;;;;;;;8.23;79.12;101187.77;1733835;82;21123;-56
2021/09/22 03:57:17;;;;;;;7.75;4.08;;;;;;;8.21;79.35;101189.58;1704036;82;21379;-55
2021/09/22 04:05:18;;;;;;;6.72;3.85;;;;;;;8.14;79.92;101174.59;1757985;79;21056;-56
2021/09/22 04:10:15;;;;;;;9.23;4.20;;;;;;;8.18;80.24;101176.28;1788549;79;21490;-53
2021/09/22 04:12:58;;;;;;;9.43;4.50;;;;;;;8.22;80.37;101172.64;1793532;79;21594;-56
2021/09/22 04:15:27;;;;;;;7.57;4.10;;;;;;;8.28;80.32;101168.52;1762447;79;21064;-54
2021/09/22 04:18:01;;;;;;;10.32;4.22;;;;;;;8.30;80.22;101170.73;1735466;82;21345;-54
2021/09/22 04:23:32;;;;;;;8.00;4.50;;;;;;;8.35;80.12;101162.61;1719254;82;21036;-54
2021/09/22 04:26:01;;;;;;;10.10;5.12;;;;;;;8.38;80.05;101162.55;1735795;81;21024;-53
2021/09/22 04:28:29;;;;;;;13.55;5.42;;;;;;;8.39;80.06;101174.12;1710666;82;21490;-54
2021/09/22 04:31:14;;;;;;;11.05;5.80;;;;;;;8.49;80.17;101178.84;1735116;81;20977;-56
2021/09/22 04:34:01;;;;;;;12.58;4.85;;;;;;;8.56;79.84;101169.37;1710945;82;21651;-56
2021/09/22 04:36:36;;;;;;;8.55;4.80;;;;;;;8.63;79.79;101159.45;1735199;81;21118;-58
2021/09/22 04:42:10;;;;;;;8.10;4.92;;;;;;;8.77;79.59;101156.48;1629496;87;21092;-56
2021/09/22 04:44:57;;;;;;;;;;;;;;;8.86;79.03;101164.30;1629184;86;21139;-57
2021/09/22 04:56:12;;;;;;;9.20;4.37;;;;;;;9.10;78.20;101161.14;1782780;79;21350;-54
2021/09/22 04:58:59;;;;;;;14.73;4.90;;;;;;;9.14;78.07;101161.01;1783209;79;21003;-56
2021/09/22 05:04:13;;;;;;;6.90;3.97;;;;;;;9.23;77.76;101147.02;1785623;79;21441;-56
2021/09/22 05:06:58;;;;;;;9.55;4.85;;;;;;;9.29;77.36;101151.78;1780453;79;21221;-56
2021/09/22 05:09:44;;;;;;;9.60;4.62;;;;;;;9.35;77.45;101154.75;1789284;79;21046;-57
2021/09/22 05:12:29;;;;;;;;;;;;;;;9.49;77.09;101153.55;1784534;79;21020;-57
2021/09/22 12:58:29;;;;;;;8.40;1.80;;;;;;;14.86;47.40;100913.52;1706509;83;21076;-55
2021/09/22 13:01:06;;;;;;;2.45;1.42;;;;;;;14.80;47.93;100920.59;1705983;83;21055;-54
2021/09/22 13:03:48;;;;;;;3.62;1.47;;;;;;;14.75;48.02;100933.45;1689595;83;21100;-53
2021/09/22 13:08:59;;;;;;;5.10;1.52;;;;;;;14.72;47.77;100914.71;1695741;83;21017;-54
2021/09/22 13:25:28;;;;;;;6.30;4.22;;;;;;;14.92;47.69;100915.50;1693748;84;21046;-54
2021/09/22 13:27:55;;;;;;;16.85;11.10;;;;;;;14.99;47.20;100900.77;1677861;83;21100;-56
2021/09/22 13:30:23;;;;;;;11.95;3.27;;;;;;;14.99;47.16;100899.41;1708775;82;21004;-56
2021/09/22 13:32:52;;;;;;;12.23;4.70;;;;;;;15.07;47.70;100901.72;1674142;84;21012;-54
2021/09/22 13:38:36;;;;;;;3.35;1.72;;;;;;;15.22;47.14;100906.80;1714680;82;21070;-54
2021/09/22 13:41:03;;;;;;;2.20;1.50;;;;;;;15.28;46.41;100901.06;1682139;84;21115;-56
2021/09/22 13:45:59;;;;;;;4.85;2.10;;;;;;;15.23;46.36;100890.98;1670016;85;21150;-54
2021/09/22 13:53:43;;;;;;;5.25;2.05;;;;;;;15.24;46.94;100894.09;1695415;84;20992;-54
2021/09/22 13:58:42;;;;;;;8.23;2.12;;;;;;;15.26;47.11;100887.66;1690448;84;21088;-55
2021/09/22 14:01:09;;;;;;;9.35;2.80;;;;;;;15.28;46.94;100889.80;1686766;83;21168;-55
2021/09/22 14:03:38;;;;;;;9.18;2.60;;;;;;;15.27;47.23;100883.12;1684786;82;21044;-58
2021/09/22 14:06:06;;;;;;;3.95;1.62;;;;;;;15.32;46.85;100881.04;1674478;84;21115;-58
2021/09/22 14:08:34;;;;;;;7.95;3.20;;;;;;;15.33;46.27;100882.78;1686438;84;21540;-58
2021/09/22 14:11:02;;;;;;;12.30;3.40;;;;;;;15.28;46.29;100888.91;1684051;84;21629;-58
2021/09/22 14:13:31;;;;;;;5.80;3.00;;;;;;;15.24;46.65;100892.24;1701970;84;21180;-58
2021/09/22 14:15:58;;;;;;;10.08;3.67;;;;;;;15.26;46.59;100889.47;1692708;84;21549;-58
2021/09/22 14:18:26;;;;;;;6.15;2.87;;;;;;;15.29;46.75;100894.71;1676201;84;21076;-58
2021/09/22 14:20:54;;;;;;;7.97;2.75;;;;;;;15.30;46.63;100896.45;1677168;84;21114;-57
2021/09/22 14:23:24;;;;;;;7.92;2.20;;;;;;;15.21;47.01;100903.70;1696980;83;21588;-58
2021/09/22 14:25:51;;;;;;;5.92;2.27;;;;;;;15.08;47.13;100898.06;1724400;83;21188;-58
2021/09/22 14:28:32;;;;;;;6.92;1.95;;;;;;;14.93;47.78;100898.39;1724336;82;21022;-58
2021/09/22 14:31:01;;;;;;;7.60;2.42;;;;;;;14.81;48.10;100892.64;1688731;84;20987;-57
2021/09/22 14:33:28;;;;;;;19.62;3.17;;;;;;;14.70;48.50;100891.80;1725936;82;21409;-58
2021/09/22 14:35:57;;;;;;;8.00;3.50;;;;;;;14.61;48.84;100889.58;1691562;84;21088;-57
2021/09/22 14:41:00;;;;;;;9.05;3.80;;;;;;;14.59;49.59;100886.08;1667214;83;21197;-54
2021/09/22 14:43:27;;;;;;;6.47;2.70;;;;;;;14.61;49.29;100894.48;1689540;84;21123;-55
2021/09/22 14:45:54;;;;;;;9.10;3.90;;;;;;;14.65;49.12;100883.53;1693147;83;21040;-55
2021/09/22 14:48:21;;;;;;;6.92;3.37;;;;;;;14.63;49.40;100890.83;1691701;83;21071;-55
2021/09/22 14:50:48;;;;;;;8.88;3.50;;;;;;;14.62;49.89;100884.58;1722030;82;21129;-55
2021/09/22 14:53:17;;;;;;;11.33;3.22;;;;;;;14.69;50.07;100894.10;1708854;83;20999;-54
2021/09/22 14:55:47;;;;;;;7.83;2.25;;;;;;;14.78;49.93;100898.66;1688951;84;21091;-55
2021/09/22 14:58:15;;;;;;;13.32;2.62;;;;;;;14.78;49.58;100900.02;1712792;83;21038;-55
2021/09/22 15:00:44;;;;;;;6.92;2.70;;;;;;;14.82;49.55;100909.73;1701589;84;21409;-54
2021/09/22 15:03:12;;;;;;;14.20;5.10;;;;;;;14.81;49.50;100907.48;1682660;84;21183;-54
2021/09/22 15:05:41;;;;;;;7.17;3.12;;;;;;;14.76;49.36;100908.20;1687861;83;21063;-58
2021/09/22 15:08:10;;;;;;;6.33;2.52;;;;;;;14.72;49.89;100910.17;1696651;84;20983;-55
2021/09/22 15:10:38;;;;;;;21.10;6.58;;;;;;;14.75;50.15;100905.11;1686857;83;21089;-54
2021/09/22 15:15:38;;;;;;;7.33;2.67;;;;;;;14.66;50.70;100906.86;1679662;84;21201;-58
2021/09/22 15:18:07;;;;;;;12.60;5.58;;;;;;;14.54;51.19;100907.88;1705044;83;21111;-55
2021/09/22 15:20:34;;;;;;;15.30;4.15;;;;;;;14.46;51.39;100908.72;1707100;83;21113;-58
2021/09/22 15:26:06;;;;;;;7.95;2.30;;;;;;;14.44;51.52;100910.62;1667127;82;21119;-59
2021/09/22 15:28:32;;;;;;;7.47;2.80;;;;;;;14.37;51.53;100911.87;1688047;83;21047;-58
2021/09/22 15:30:59;;;;;;;7.25;2.72;;;;;;;14.36;51.86;100910.98;1687843;84;21583;-58
2021/09/22 15:33:29;;;;;;;13.35;3.58;;;;;;;14.35;51.92;100908.37;1692982;84;21043;-58
2021/09/22 15:35:56;;;;;;;7.65;3.72;;;;;;;14.39;52.04;100907.28;1723802;82;21463;-58
2021/09/22 15:38:25;;;;;;;8.48;3.58;;;;;;;14.44;51.82;100910.62;1699345;84;21137;-55
2021/09/22 15:40:52;;;;;;;9.05;3.10;;;;;;;14.41;51.83;100898.17;1699342;84;21218;-54
2021/09/22 15:43:19;;;;;;;10.08;3.42;;;;;;;14.45;51.93;100902.92;1699028;84;21082;-57
2021/09/22 15:45:46;;;;;;;12.75;3.30;;;;;;;14.48;51.93;100901.45;1697863;84;21010;-58
2021/09/22 15:55:59;;;;;;;7.30;2.90;;;;;;;14.56;51.50;100904.64;1697098;83;21019;-54
2021/09/22 15:58:26;;;;;;;6.70;2.67;;;;;;;14.52;51.55;100903.05;1697676;84;21537;-57
2021/09/22 16:00:55;;;;;;;14.35;3.15;;;;;;;14.51;51.72;100906.69;1698431;83;21134;-59
2021/09/22 16:03:23;;;;;;;9.45;2.60;;;;;;;14.55;51.64;100915.03;1697017;84;21582;-59
2021/09/22 16:05:50;;;;;;;14.85;3.35;;;;;;;14.59;51.54;100915.27;1698028;83;21151;-54
2021/09/22 16:08:28;;;;;;;15.95;2.90;;;;;;;14.62;51.50;100911.56;1682286;83;21498;-57
2021/09/22 16:10:56;;;;;;;10.23;2.87;;;;;;;14.60;51.30;100912.11;1703022;82;21083;-58
2021/09/22 16:13:23;;;;;;;8.33;3.37;;;;;;;14.53;51.08;100910.19;1699529;84;21476;-54
2021/09/22 16:15:55;;;;;;;7.78;2.92;;;;;;;14.47;51.03;100911.81;1728009;81;20999;-54
2021/09/22 16:18:23;;;;;;;16.73;2.87;;;;;;;14.40;51.07;100910.38;1704619;83;21492;-53
2021/09/22 16:20:51;;;;;;;9.83;2.80;;;;;;;14.30;51.11;100911.30;1697712;84;21126;-55
2021/09/22 16:23:22;;;;;;;8.20;2.92;;;;;;;14.27;51.28;100908.29;1698257;83;21403;-58
2021/09/22 16:28:18;;;;;;;16.45;2.87;;;;;;;14.22;51.48;100909.45;1707813;83;21474;-58
2021/09/22 16:30:45;;;;;;;16.57;3.55;;;;;;;14.17;51.57;100909.20;1692361;84;21839;-59
2021/09/22 16:33:30;;;;;;;13.83;3.92;;;;;;;14.12;51.82;100909.01;1671445;85;21055;-58
2021/09/22 16:38:33;;;;;;;13.43;6.15;;;;;;;14.15;51.83;100908.41;1701317;84;21031;-59
2021/09/22 16:41:00;;;;;;;17.70;5.72;;;;;;;14.16;51.60;100909.26;1700995;83;21071;-58
2021/09/22 16:43:27;;;;;;;20.62;5.87;;;;;;;14.13;51.61;100913.45;1698111;83;21139;-58
2021/09/22 16:45:55;;;;;;;22.55;5.97;;;;;;;14.11;51.63;100914.00;1698623;83;21091;-58
2021/09/22 16:48:24;;;;;;;22.42;6.05;;;;;;;14.12;51.85;100911.70;1696671;84;21526;-58
2021/09/22 16:53:20;;;;;;;16.50;4.87;;;;;;;14.24;51.94;100915.15;1668347;84;21040;-59
2021/09/22 16:55:47;;;;;;;14.63;4.37;;;;;;;14.26;51.96;100921.37;1702107;83;21548;-58
2021/09/22 16:58:14;;;;;;;15.70;5.17;;;;;;;14.27;52.09;100923.12;1679043;82;20996;-59
2021/09/22 17:00:41;;;;;;;17.10;5.00;;;;;;;14.31;52.14;100926.06;1698730;84;21107;-55
2021/09/22 17:03:08;;;;;;;20.97;6.90;;;;;;;14.34;52.70;100933.11;1699145;84;21043;-59
2021/09/22 17:05:36;;;;;;;15.43;7.58;;;;;;;14.17;54.69;100939.31;1712148;82;21071;-58
2021/09/22 17:08:05;;;;;;;14.55;7.20;;;;;;;13.88;56.31;100943.77;1695115;83;21190;-58
2021/09/22 17:10:36;;;;;;;16.73;6.17;;;;;;;13.60;58.59;100938.78;1727074;82;21425;-57
2021/09/22 17:13:05;;;;;;;11.38;5.40;;;;;;;13.36;60.53;100950.12;1728812;83;22122;-58
2021/09/22 17:15:34;;;;;;;13.75;6.80;;;;;;;13.13;62.98;100946.11;1727280;82;21011;-58
2021/09/22 17:18:13;;;;;;;12.37;5.50;;;;;;;12.87;64.79;100945.89;1727006;82;21595;-58
2021/09/22 17:20:42;;;;;;;13.00;5.50;;;;;;;12.69;66.45;100947.50;1726612;82;21090;-57
2021/09/22 17:23:10;;;;;;;10.15;5.28;;;;;;;12.54;67.84;100944.52;1692004;83;21101;-57
2021/09/22 17:25:39;;;;;;;9.95;5.28;;;;;;;12.38;68.72;100942.91;1700058;83;20979;-58
2021/09/22 17:28:08;;;;;;;9.18;5.37;;;;;;;12.29;70.12;100941.45;1696435;84;21075;-58
2021/09/22 17:30:34;;;;;;;8.48;4.70;;;;;;;12.24;70.86;100945.25;1686371;84;21063;-58
2021/09/22 17:33:03;;;;;;;9.85;5.92;;;;;;;12.18;71.84;100947.70;1692739;81;21485;-58
2021/09/22 17:35:31;;;;;;;8.50;4.92;;;;;;;12.10;72.74;100937.73;1713192;82;20990;-58
2021/09/22 17:37:58;;;;;;;13.78;6.12;;;;;;;11.98;73.07;100939.90;1725912;81;21522;-58
2021/09/22 17:40:30;;;;;;;6.53;4.70;;;;;;;11.88;74.08;100939.37;1721619;82;20988;-58
2021/09/22 17:42:56;;;;;;;9.83;5.12;;;;;;;11.83;74.46;100939.16;1730394;82;21151;-59
2021/09/22 17:45:24;;;;;;;8.83;4.90;;;;;;;11.79;74.84;100937.48;1720217;82;21138;-55
2021/09/22 17:50:19;;;;;;;11.20;5.37;;;;;;;11.69;75.76;100939.19;1711558;82;21466;-55
2021/09/22 17:52:46;;;;;;;12.05;5.42;;;;;;;11.69;76.31;100936.50;1704828;83;21148;-55
2021/09/22 17:55:14;;;;;;;9.68;5.15;;;;;;;11.71;76.59;100937.31;1716772;82;21607;-55
2021/09/22 18:00:12;;;;;;;11.90;6.15;;;;;;;11.69;76.99;100928.44;1712281;82;21024;-55
2021/09/22 18:02:41;;;;;;;7.47;5.08;;;;;;;11.64;77.32;100929.09;1685710;82;21011;-55
2021/09/22 18:05:13;;;;;;;15.05;9.30;;;;;;;11.57;77.79;100918.13;1688697;84;21051;-55
2021/09/22 18:07:44;;;;;;;16.65;7.17;;;;;;;11.52;78.17;100925.48;1696856;83;21036;-55
2021/09/22 18:10:24;;;;;;;11.75;5.87;;;;;;;11.48;78.75;100915.31;1687330;84;21111;-54
2021/09/22 18:12:51;;;;;;;12.88;5.83;;;;;;;11.44;79.18;100915.91;1667178;84;21016;-53
2021/09/22 18:15:29;;;;;;;9.40;5.33;;;;;;;11.38;79.20;100916.59;1713435;82;21016;-54
2021/09/22 18:17:57;;;;;;;12.60;5.50;;;;;;;11.33;79.46;100910.04;1704255;82;21279;-54
2021/09/22 18:22:58;;;;;;;12.85;5.17;;;;;;;11.33;79.62;100906.02;1710623;83;21120;-54
2021/09/22 18:25:27;;;;;;;16.73;6.12;;;;;;;11.37;79.17;100908.98;1713048;83;21080;-54
2021/09/22 18:27:54;;;;;;;14.68;4.90;;;;;;;11.36;79.09;100905.90;1721362;82;21397;-54
2021/09/22 18:30:23;;;;;;;12.55;4.80;;;;;;;11.36;79.02;100905.90;1726397;82;21008;-55
2021/09/22 18:40:28;;;;;;;20.12;6.35;;;;;;;11.27;79.18;100900.88;1712175;83;21152;-55
2021/09/22 18:42:55;;;;;;;21.68;6.15;;;;;;;11.17;79.34;100899.87;1706857;83;21151;-54
2021/09/22 18:52:53;;;;;;;11.30;5.83;;;;;;;11.15;80.98;100900.36;1717583;82;20984;-54
2021/09/22 18:55:22;;;;;;;9.05;4.72;;;;;;;11.15;81.24;100901.70;1718381;83;20956;-54
2021/09/22 18:57:50;;;;;;;9.18;5.20;;;;;;;11.15;81.58;100902.18;1721003;83;21060;-55
2021/09/22 19:02:50;;;;;;;7.95;4.92;;;;;;;11.05;82.09;100896.25;1722142;82;21123;-54
2021/09/22 19:05:17;;;;;;;7.50;4.85;;;;;;;11.06;82.39;100898.01;1701591;84;21150;-54
2021/09/22 19:07:45;;;;;;;10.25;6.15;;;;;;;11.05;82.52;100892.23;1697173;83;21044;-54
2021/09/22 19:10:12;;;;;;;8.63;4.67;;;;;;;11.07;82.65;100894.39;1698455;83;21075;-59
2021/09/22 19:12:41;;;;;;;11.18;5.08;;;;;;;11.04;82.95;100894.02;1713785;83;21480;-59
2021/09/22 19:15:11;;;;;;;36.53;21.42;;;;;;;11.06;82.98;100891.30;1672749;84;21083;-58
2021/09/22 19:17:40;;;;;;;13.78;8.00;;;;;;;11.09;82.92;100895.22;1689769;84;21126;-59
2021/09/22 19:20:10;;;;;;;12.13;4.60;;;;;;;11.09;82.62;100890.33;1698446;84;21123;-58
2021/09/22 19:22:39;;;;;;;9.83;4.20;;;;;;;11.06;82.54;100888.61;1713730;82;21007;-58
2021/09/22 19:25:09;;;;;;;11.38;4.20;;;;;;;11.05;82.35;100881.50;1726117;82;21225;-58
2021/09/22 19:27:38;;;;;;;11.50;4.78;;;;;;;11.02;82.30;100886.49;1726407;82;21145;-58
2021/09/22 19:30:07;;;;;;;11.08;3.98;;;;;;;10.99;82.45;100882.58;1726345;82;21102;-58
2021/09/22 19:35:04;;;;;;;9.60;4.30;;;;;;;10.95;82.58;100882.77;1707547;83;21414;-58
2021/09/22 19:37:32;;;;;;;9.88;4.00;;;;;;;10.93;82.62;100875.20;1728668;82;21127;-58
2021/09/22 19:39:59;;;;;;;7.90;4.40;;;;;;;10.91;82.77;100879.75;1727071;82;21019;-58
2021/09/22 19:42:27;;;;;;;12.20;4.47;;;;;;;10.88;82.96;100877.59;1678730;83;21089;-58
2021/09/22 19:44:54;;;;;;;10.15;4.28;;;;;;;10.87;82.92;100874.49;1696783;84;21078;-58
2021/09/22 19:47:22;;;;;;;8.00;4.22;;;;;;;10.81;82.90;100872.03;1669277;85;21088;-58
2021/09/22 19:49:49;;;;;;;12.75;4.58;;;;;;;10.78;83.18;100870.80;1658928;85;21459;-58
2021/09/22 19:52:18;;;;;;;10.05;4.55;;;;;;;10.79;83.29;100868.97;1691775;83;20999;-58
2021/09/22 19:54:45;;;;;;;6.62;4.35;;;;;;;10.76;83.28;100872.66;1667086;86;21047;-58
2021/09/22 19:57:12;;;;;;;10.50;5.03;;;;;;;10.71;83.55;100871.46;1697961;83;21070;-58
2021/09/22 19:59:48;;;;;;;12.98;4.90;;;;;;;10.67;83.68;100864.91;1699065;82;21011;-58
2021/09/22 20:02:19;;;;;;;7.95;4.53;;;;;;;10.59;83.78;100865.16;1676467;84;21500;-58
2021/09/22 20:07:19;;;;;;;7.87;4.20;;;;;;;10.41;84.64;100862.18;1704643;83;21119;-59
2021/09/22 20:09:54;;;;;;;13.48;4.42;;;;;;;10.37;84.92;100860.95;1690859;84;21042;-58
2021/09/22 20:12:31;;;;;;;12.65;4.15;;;;;;;10.30;85.13;100862.49;1694598;83;21011;-55
2021/09/22 20:14:59;;;;;;;10.03;4.30;;;;;;;10.26;85.46;100857.27;1694696;84;21058;-54
2021/09/22 20:17:26;;;;;;;6.80;4.08;;;;;;;10.22;85.60;100861.84;1693840;83;21028;-54
2021/09/22 20:19:55;;;;;;;7.05;4.35;;;;;;;10.16;85.52;100852.67;1706457;82;21030;-54
2021/09/22 20:25:01;;;;;;;6.30;3.33;;;;;;;10.09;85.59;100847.09;1697874;84;21034;-54
2021/09/22 20:27:30;;;;;;;8.05;4.22;;;;;;;10.10;85.34;100850.19;1698299;84;21071;-54
2021/09/22 20:29:59;;;;;;;5.40;3.52;;;;;;;10.07;85.19;100852.97;1710279;83;21098;-55
2021/09/22 20:32:29;;;;;;;6.10;3.92;;;;;;;10.06;85.04;100852.52;1694579;82;21072;-55
2021/09/22 20:35:45;;;;;;;11.48;3.47;;;;;;;10.03;84.93;100853.52;1696473;84;21051;-55
2021/09/22 20:37:28;;;;;;;13.98;4.20;;;;;;;10.01;84.95;100852.69;1671655;84;21511;-54
2021/09/22 20:39:55;;;;;;;7.03;4.10;;;;;;;9.98;84.94;100852.31;1683997;84;21486;-54
2021/09/22 20:42:23;;;;;;;7.67;4.22;;;;;;;9.96;85.06;100855.50;1699744;84;21341;-53
2021/09/22 20:44:54;;;;;;;7.33;3.95;;;;;;;9.94;85.11;100853.34;1695692;84;21045;-54
2021/09/22 20:49:55;;;;;;;10.72;4.65;;;;;;;9.92;85.35;100859.20;1689218;84;21193;-54
2021/09/22 20:52:22;;;;;;;10.65;4.85;;;;;;;9.92;85.30;100861.88;1697273;83;21512;-54
2021/09/22 20:54:49;;;;;;;10.30;4.70;;;;;;;9.89;85.37;100852.61;1697021;83;21019;-54
2021/09/22 20:57:15;;;;;;;9.90;4.90;;;;;;;9.89;85.47;100857.97;1667815;84;21568;-54
2021/09/22 20:59:44;;;;;;;11.30;4.53;;;;;;;9.87;85.58;100854.45;1698774;83;21018;-54
2021/09/22 21:02:11;;;;;;;8.05;4.50;;;;;;;9.85;85.66;100856.31;1697311;84;21121;-53
2021/09/22 21:04:38;;;;;;;11.28;4.95;;;;;;;9.84;85.75;100855.89;1665490;84;21154;-54
2021/09/22 21:07:05;;;;;;;9.20;4.80;;;;;;;9.83;85.84;100855.00;1674915;85;21032;-54
2021/09/22 21:09:32;;;;;;;6.03;4.22;;;;;;;9.82;85.88;100852.36;1696854;84;21287;-53
2021/09/22 21:12:01;;;;;;;11.10;4.62;;;;;;;9.80;86.19;100855.09;1694797;84;21064;-55
2021/09/22 21:14:28;;;;;;;4.87;4.00;;;;;;;9.77;86.34;100855.20;1690936;84;21143;-54
2021/09/22 21:16:55;;;;;;;10.18;5.10;;;;;;;9.78;86.61;100853.38;1697724;83;21599;-55
2021/09/22 21:19:23;;;;;;;9.73;4.58;;;;;;;9.75;86.75;100852.55;1678435;83;21021;-54
2021/09/22 21:21:50;;;;;;;9.55;4.85;;;;;;;9.72;87.02;100841.94;1681216;84;21152;-55
2021/09/22 21:24:17;;;;;;;10.88;4.70;;;;;;;9.70;87.10;100846.46;1697875;84;21044;-54
2021/09/22 21:26:44;;;;;;;6.60;4.62;;;;;;;9.67;87.36;100835.84;1703866;83;21068;-55
2021/09/22 21:29:12;;;;;;;9.23;4.42;;;;;;;9.64;87.59;100835.95;1716199;82;22941;-54
2021/09/22 21:31:41;;;;;;;7.03;4.80;;;;;;;9.62;88.01;100827.09;1721848;83;21111;-54
2021/09/22 21:34:08;;;;;;;8.98;5.20;;;;;;;9.59;88.10;100828.05;1721830;83;21072;-54
2021/09/22 21:36:35;;;;;;;7.78;5.28;;;;;;;9.58;88.40;100833.43;1717862;82;21083;-54
2021/09/22 21:39:03;;;;;;;11.63;5.47;;;;;;;9.58;88.61;100827.63;1722793;83;21036;-54
2021/09/22 21:41:30;;;;;;;8.83;5.08;;;;;;;9.60;88.70;100826.22;1722678;83;21151;-54
2021/09/22 21:43:57;;;;;;;8.70;5.10;;;;;;;9.61;88.91;100827.98;1720484;82;21041;-55
2021/09/22 21:46:24;;;;;;;11.73;4.78;;;;;;;9.63;89.07;100826.16;1716427;82;21254;-54
2021/09/22 21:48:53;;;;;;;7.95;5.58;;;;;;;9.66;89.12;100826.06;1721952;82;21425;-54
2021/09/22 21:51:22;;;;;;;7.92;5.72;;;;;;;9.69;89.28;100821.95;1714140;82;21059;-54
2021/09/22 21:53:50;;;;;;;10.60;5.67;;;;;;;9.70;89.35;100818.35;1720904;82;20999;-54
2021/09/22 21:56:20;;;;;;;9.03;5.45;;;;;;;9.71;89.39;100818.77;1716806;82;21638;-54
2021/09/22 21:58:47;;;;;;;9.00;5.30;;;;;;;9.72;89.44;100815.16;1723378;82;21033;-55
2021/09/22 22:01:15;;;;;;;9.00;5.55;;;;;;;9.78;89.48;100810.53;1720613;82;21488;-55
2021/09/22 22:03:43;;;;;;;10.38;5.92;;;;;;;9.83;89.43;100809.48;1704699;82;21592;-54
2021/09/22 22:06:10;;;;;;;9.28;4.87;;;;;;;9.86;89.24;100813.39;1698561;83;21749;-54
2021/09/22 22:11:11;;;;;;;11.25;5.03;;;;;;;9.85;89.19;100812.12;1697024;83;21158;-53
2021/09/22 22:13:42;;;;;;;9.90;5.60;;;;;;;9.86;89.14;100811.20;1699818;83;21010;-54
2021/09/22 22:16:09;;;;;;;11.53;4.80;;;;;;;9.83;89.03;100817.52;1697666;83;21093;-53
2021/09/22 22:18:37;;;;;;;8.78;4.92;;;;;;;9.80;89.10;100810.02;1701675;83;20994;-54
2021/09/22 22:21:10;;;;;;;10.35;5.03;;;;;;;9.79;89.12;100808.27;1698724;84;21074;-55
2021/09/22 22:23:39;;;;;;;7.40;4.50;;;;;;;9.74;89.06;100810.63;1667502;86;21079;-53
2021/09/22 22:26:06;;;;;;;5.67;4.08;;;;;;;9.68;89.15;100809.48;1697423;83;21017;-53
2021/09/22 22:28:35;;;;;;;8.80;4.80;;;;;;;9.66;89.31;100814.02;1698983;83;21424;-53
2021/09/22 22:31:02;;;;;;;7.70;4.55;;;;;;;9.63;89.26;100815.45;1703356;84;21928;-54
2021/09/22 22:33:29;;;;;;;10.93;5.00;;;;;;;9.58;89.41;100812.02;1671179;84;21075;-54
2021/09/22 22:35:57;;;;;;;9.15;4.92;;;;;;;9.56;89.48;100813.86;1698937;83;21596;-55
2021/09/22 22:38:24;;;;;;;10.23;4.55;;;;;;;9.50;89.41;100816.73;1699370;82;21039;-54
2021/09/22 22:40:55;;;;;;;8.73;4.87;;;;;;;9.44;89.62;100813.32;1688613;83;21202;-54
2021/09/22 22:45:51;;;;;;;8.78;4.30;;;;;;;9.35;89.62;100818.92;1703094;83;21586;-54
2021/09/22 22:48:20;;;;;;;6.97;4.17;;;;;;;9.27;89.77;100813.78;1702902;83;21063;-55
2021/09/22 22:50:47;;;;;;;6.72;4.90;;;;;;;9.26;89.93;100809.83;1703663;84;21048;-55
2021/09/22 22:53:14;;;;;;;10.23;4.50;;;;;;;9.24;89.91;100814.35;1699525;83;21504;-54
2021/09/22 23:00:42;;;;;;;7.70;4.28;;;;;;;9.17;90.04;100804.28;1701613;83;21545;-55